sensor_id;sensor_type;location;lat;lon;timestamp;P1;durP1;ratioP1;P2;durP2;ratioP2
11771;SDS011;12556;55.748;13.194;2023-05-27T00:01:45;4.50;;;2.20;;
11771;SDS011;12556;55.748;13.194;2023-05-27T00:04:12;5.50;;;2.13;;
11771;SDS011;12556;55.748;13.194;2023-05-27T00:06:39;4.40;;;2.27;;
11771;SDS011;12556;55.748;13.194;2023-05-27T00:09:08;4.07;;;2.07;;
11771;SDS011;12556;55.748;13.194;2023-05-27T00:11:35;4.23;;;1.60;;
11771;SDS011;12556;55.748;13.194;2023-05-27T00:14:02;3.90;;;2.13;;
11771;SDS011;12556;55.748;13.194;2023-05-27T00:16:28;5.07;;;2.20;;
11771;SDS011;12556;55.748;13.194;2023-05-27T00:18:56;3.67;;;1.83;;
11771;SDS011;12556;55.748;13.194;2023-05-27T00:21:24;3.97;;;2.00;;
11771;SDS011;12556;55.748;13.194;2023-05-27T00:23:51;6.80;;;2.10;;
11771;SDS011;12556;55.748;13.194;2023-05-27T00:26:19;4.00;;;1.90;;
11771;SDS011;12556;55.748;13.194;2023-05-27T00:28:46;3.43;;;2.07;;
11771;SDS011;12556;55.748;13.194;2023-05-27T00:31:13;2.77;;;2.17;;
11771;SDS011;12556;55.748;13.194;2023-05-27T00:33:40;2.90;;;1.63;;
11771;SDS011;12556;55.748;13.194;2023-05-27T00:36:09;4.63;;;1.70;;
11771;SDS011;12556;55.748;13.194;2023-05-27T00:38:35;5.33;;;2.10;;
11771;SDS011;12556;55.748;13.194;2023-05-27T00:41:02;5.00;;;1.97;;
11771;SDS011;12556;55.748;13.194;2023-05-27T00:43:31;4.80;;;2.00;;
11771;SDS011;12556;55.748;13.194;2023-05-27T00:45:58;6.07;;;2.07;;
11771;SDS011;12556;55.748;13.194;2023-05-27T00:48:25;4.37;;;2.10;;
11771;SDS011;12556;55.748;13.194;2023-05-27T00:50:52;3.87;;;1.90;;
11771;SDS011;12556;55.748;13.194;2023-05-27T00:53:19;4.50;;;1.90;;
11771;SDS011;12556;55.748;13.194;2023-05-27T00:55:46;5.77;;;2.30;;
11771;SDS011;12556;55.748;13.194;2023-05-27T00:58:13;6.63;;;2.47;;
11771;SDS011;12556;55.748;13.194;2023-05-27T01:00:42;3.73;;;2.17;;
11771;SDS011;12556;55.748;13.194;2023-05-27T01:03:08;5.80;;;2.27;;
11771;SDS011;12556;55.748;13.194;2023-05-27T01:05:35;6.07;;;2.80;;
11771;SDS011;12556;55.748;13.194;2023-05-27T01:08:07;8.33;;;2.57;;
11771;SDS011;12556;55.748;13.194;2023-05-27T01:10:45;7.73;;;2.50;;
11771;SDS011;12556;55.748;13.194;2023-05-27T01:13:16;7.07;;;2.53;;
11771;SDS011;12556;55.748;13.194;2023-05-27T01:15:50;3.17;;;2.20;;
11771;SDS011;12556;55.748;13.194;2023-05-27T01:18:19;5.53;;;2.10;;
11771;SDS011;12556;55.748;13.194;2023-05-27T01:20:49;4.17;;;2.00;;
11771;SDS011;12556;55.748;13.194;2023-05-27T01:23:21;5.33;;;2.37;;
11771;SDS011;12556;55.748;13.194;2023-05-27T01:25:49;7.23;;;2.50;;
11771;SDS011;12556;55.748;13.194;2023-05-27T01:28:16;8.10;;;2.57;;
11771;SDS011;12556;55.748;13.194;2023-05-27T01:30:43;5.93;;;2.40;;
11771;SDS011;12556;55.748;13.194;2023-05-27T01:33:12;6.37;;;2.50;;
11771;SDS011;12556;55.748;13.194;2023-05-27T01:35:44;9.10;;;2.70;;
11771;SDS011;12556;55.748;13.194;2023-05-27T01:38:15;5.70;;;2.57;;
11771;SDS011;12556;55.748;13.194;2023-05-27T01:40:46;7.97;;;2.57;;
11771;SDS011;12556;55.748;13.194;2023-05-27T01:43:15;4.30;;;2.80;;
11771;SDS011;12556;55.748;13.194;2023-05-27T01:45:43;6.00;;;2.37;;
11771;SDS011;12556;55.748;13.194;2023-05-27T01:48:11;7.57;;;2.37;;
11771;SDS011;12556;55.748;13.194;2023-05-27T01:50:38;8.27;;;2.60;;
11771;SDS011;12556;55.748;13.194;2023-05-27T01:53:05;7.77;;;2.70;;
11771;SDS011;12556;55.748;13.194;2023-05-27T01:55:32;3.90;;;2.10;;
11771;SDS011;12556;55.748;13.194;2023-05-27T01:58:00;5.13;;;2.50;;
11771;SDS011;12556;55.748;13.194;2023-05-27T02:00:27;7.07;;;2.73;;
11771;SDS011;12556;55.748;13.194;2023-05-27T02:02:55;4.87;;;2.47;;
11771;SDS011;12556;55.748;13.194;2023-05-27T02:05:21;5.13;;;2.50;;
11771;SDS011;12556;55.748;13.194;2023-05-27T02:07:49;5.43;;;2.63;;
11771;SDS011;12556;55.748;13.194;2023-05-27T02:10:16;5.83;;;2.37;;
11771;SDS011;12556;55.748;13.194;2023-05-27T02:12:43;8.10;;;2.40;;
11771;SDS011;12556;55.748;13.194;2023-05-27T02:15:11;5.47;;;2.37;;
11771;SDS011;12556;55.748;13.194;2023-05-27T02:17:38;5.80;;;2.67;;
11771;SDS011;12556;55.748;13.194;2023-05-27T02:20:06;5.97;;;2.93;;
11771;SDS011;12556;55.748;13.194;2023-05-27T02:22:33;7.13;;;2.23;;
11771;SDS011;12556;55.748;13.194;2023-05-27T02:25:00;3.90;;;2.17;;
11771;SDS011;12556;55.748;13.194;2023-05-27T02:27:27;6.27;;;2.40;;
11771;SDS011;12556;55.748;13.194;2023-05-27T02:29:53;8.40;;;2.60;;
11771;SDS011;12556;55.748;13.194;2023-05-27T02:32:22;7.60;;;2.43;;
11771;SDS011;12556;55.748;13.194;2023-05-27T02:34:48;3.13;;;1.87;;
11771;SDS011;12556;55.748;13.194;2023-05-27T02:37:15;6.33;;;2.67;;
11771;SDS011;12556;55.748;13.194;2023-05-27T02:39:42;3.80;;;2.43;;
11771;SDS011;12556;55.748;13.194;2023-05-27T02:42:09;5.40;;;2.20;;
11771;SDS011;12556;55.748;13.194;2023-05-27T02:44:36;7.43;;;2.33;;
11771;SDS011;12556;55.748;13.194;2023-05-27T02:47:03;6.93;;;2.63;;
11771;SDS011;12556;55.748;13.194;2023-05-27T02:49:32;4.93;;;2.30;;
11771;SDS011;12556;55.748;13.194;2023-05-27T02:51:59;5.33;;;2.40;;
11771;SDS011;12556;55.748;13.194;2023-05-27T02:54:25;5.87;;;2.57;;
11771;SDS011;12556;55.748;13.194;2023-05-27T02:56:52;8.00;;;2.00;;
11771;SDS011;12556;55.748;13.194;2023-05-27T02:59:19;6.87;;;2.30;;
11771;SDS011;12556;55.748;13.194;2023-05-27T03:01:46;7.53;;;2.73;;
11771;SDS011;12556;55.748;13.194;2023-05-27T03:04:13;8.83;;;2.87;;
11771;SDS011;12556;55.748;13.194;2023-05-27T03:06:42;5.70;;;2.43;;
11771;SDS011;12556;55.748;13.194;2023-05-27T03:09:09;10.07;;;2.77;;
11771;SDS011;12556;55.748;13.194;2023-05-27T03:11:36;6.20;;;2.63;;
11771;SDS011;12556;55.748;13.194;2023-05-27T03:14:03;7.87;;;2.70;;
11771;SDS011;12556;55.748;13.194;2023-05-27T03:16:30;7.60;;;2.73;;
11771;SDS011;12556;55.748;13.194;2023-05-27T03:18:57;8.43;;;2.67;;
11771;SDS011;12556;55.748;13.194;2023-05-27T03:21:24;5.87;;;3.20;;
11771;SDS011;12556;55.748;13.194;2023-05-27T03:23:52;6.23;;;2.93;;
11771;SDS011;12556;55.748;13.194;2023-05-27T03:26:19;9.73;;;2.60;;
11771;SDS011;12556;55.748;13.194;2023-05-27T03:28:46;10.60;;;3.07;;
11771;SDS011;12556;55.748;13.194;2023-05-27T03:31:13;8.93;;;2.93;;
11771;SDS011;12556;55.748;13.194;2023-05-27T03:33:40;6.87;;;2.47;;
11771;SDS011;12556;55.748;13.194;2023-05-27T03:36:07;9.40;;;3.23;;
11771;SDS011;12556;55.748;13.194;2023-05-27T03:38:35;7.43;;;2.50;;
11771;SDS011;12556;55.748;13.194;2023-05-27T03:41:03;7.30;;;2.27;;
11771;SDS011;12556;55.748;13.194;2023-05-27T03:43:30;5.90;;;2.73;;
11771;SDS011;12556;55.748;13.194;2023-05-27T03:45:56;5.00;;;2.50;;
11771;SDS011;12556;55.748;13.194;2023-05-27T03:48:23;4.17;;;2.20;;
11771;SDS011;12556;55.748;13.194;2023-05-27T03:50:50;5.00;;;2.60;;
11771;SDS011;12556;55.748;13.194;2023-05-27T03:53:17;8.67;;;2.80;;
11771;SDS011;12556;55.748;13.194;2023-05-27T03:55:44;8.20;;;2.60;;
11771;SDS011;12556;55.748;13.194;2023-05-27T03:58:12;6.83;;;2.50;;
11771;SDS011;12556;55.748;13.194;2023-05-27T04:00:39;7.03;;;2.57;;
11771;SDS011;12556;55.748;13.194;2023-05-27T04:03:07;7.67;;;3.00;;
11771;SDS011;12556;55.748;13.194;2023-05-27T04:05:34;6.13;;;2.90;;
11771;SDS011;12556;55.748;13.194;2023-05-27T04:08:01;9.20;;;2.77;;
11771;SDS011;12556;55.748;13.194;2023-05-27T04:10:29;12.93;;;3.23;;
11771;SDS011;12556;55.748;13.194;2023-05-27T04:12:55;7.97;;;2.70;;
11771;SDS011;12556;55.748;13.194;2023-05-27T04:15:24;9.20;;;3.17;;
11771;SDS011;12556;55.748;13.194;2023-05-27T04:17:52;11.60;;;3.97;;
11771;SDS011;12556;55.748;13.194;2023-05-27T04:20:19;14.60;;;4.27;;
11771;SDS011;12556;55.748;13.194;2023-05-27T04:22:46;15.13;;;4.77;;
11771;SDS011;12556;55.748;13.194;2023-05-27T04:25:12;11.97;;;4.20;;
11771;SDS011;12556;55.748;13.194;2023-05-27T04:27:39;14.23;;;4.57;;
11771;SDS011;12556;55.748;13.194;2023-05-27T04:30:06;16.40;;;4.97;;
11771;SDS011;12556;55.748;13.194;2023-05-27T04:32:36;16.47;;;5.07;;
11771;SDS011;12556;55.748;13.194;2023-05-27T04:35:04;10.17;;;4.20;;
11771;SDS011;12556;55.748;13.194;2023-05-27T04:37:32;17.20;;;5.47;;
11771;SDS011;12556;55.748;13.194;2023-05-27T04:40:01;20.77;;;5.77;;
11771;SDS011;12556;55.748;13.194;2023-05-27T04:42:29;9.80;;;4.17;;
11771;SDS011;12556;55.748;13.194;2023-05-27T04:44:58;13.63;;;4.50;;
11771;SDS011;12556;55.748;13.194;2023-05-27T04:47:25;13.80;;;4.17;;
11771;SDS011;12556;55.748;13.194;2023-05-27T04:49:53;16.93;;;5.53;;
11771;SDS011;12556;55.748;13.194;2023-05-27T04:52:20;10.87;;;4.27;;
11771;SDS011;12556;55.748;13.194;2023-05-27T04:54:48;11.90;;;4.03;;
11771;SDS011;12556;55.748;13.194;2023-05-27T04:57:15;10.07;;;4.30;;
11771;SDS011;12556;55.748;13.194;2023-05-27T04:59:43;12.50;;;4.53;;
11771;SDS011;12556;55.748;13.194;2023-05-27T05:02:25;12.80;;;4.70;;
11771;SDS011;12556;55.748;13.194;2023-05-27T05:05:00;11.73;;;4.33;;
11771;SDS011;12556;55.748;13.194;2023-05-27T05:07:28;14.07;;;5.10;;
11771;SDS011;12556;55.748;13.194;2023-05-27T05:09:54;21.10;;;5.83;;
11771;SDS011;12556;55.748;13.194;2023-05-27T05:12:22;15.27;;;5.27;;
11771;SDS011;12556;55.748;13.194;2023-05-27T05:14:48;15.17;;;5.53;;
11771;SDS011;12556;55.748;13.194;2023-05-27T05:17:15;24.07;;;5.33;;
11771;SDS011;12556;55.748;13.194;2023-05-27T05:19:43;17.60;;;5.60;;
11771;SDS011;12556;55.748;13.194;2023-05-27T05:22:12;19.90;;;4.63;;
11771;SDS011;12556;55.748;13.194;2023-05-27T05:24:39;13.73;;;4.97;;
11771;SDS011;12556;55.748;13.194;2023-05-27T05:27:06;18.23;;;5.83;;
11771;SDS011;12556;55.748;13.194;2023-05-27T05:29:33;19.33;;;5.57;;
11771;SDS011;12556;55.748;13.194;2023-05-27T05:32:00;17.13;;;5.60;;
11771;SDS011;12556;55.748;13.194;2023-05-27T05:34:27;16.80;;;5.07;;
11771;SDS011;12556;55.748;13.194;2023-05-27T05:36:53;16.30;;;5.23;;
11771;SDS011;12556;55.748;13.194;2023-05-27T05:39:22;13.10;;;5.10;;
11771;SDS011;12556;55.748;13.194;2023-05-27T05:41:49;14.87;;;5.23;;
11771;SDS011;12556;55.748;13.194;2023-05-27T05:44:17;20.03;;;5.93;;
11771;SDS011;12556;55.748;13.194;2023-05-27T05:46:43;13.23;;;4.73;;
11771;SDS011;12556;55.748;13.194;2023-05-27T05:49:10;16.90;;;5.17;;
11771;SDS011;12556;55.748;13.194;2023-05-27T05:51:37;18.60;;;5.37;;
11771;SDS011;12556;55.748;13.194;2023-05-27T05:54:04;14.50;;;5.03;;
11771;SDS011;12556;55.748;13.194;2023-05-27T05:56:33;20.47;;;6.03;;
11771;SDS011;12556;55.748;13.194;2023-05-27T05:58:59;18.37;;;6.53;;
11771;SDS011;12556;55.748;13.194;2023-05-27T06:01:26;20.07;;;5.60;;
11771;SDS011;12556;55.748;13.194;2023-05-27T06:03:53;19.17;;;5.60;;
11771;SDS011;12556;55.748;13.194;2023-05-27T06:06:23;15.50;;;5.07;;
11771;SDS011;12556;55.748;13.194;2023-05-27T06:08:50;15.87;;;5.10;;
11771;SDS011;12556;55.748;13.194;2023-05-27T06:11:17;21.93;;;6.57;;
11771;SDS011;12556;55.748;13.194;2023-05-27T06:13:45;20.87;;;6.83;;
11771;SDS011;12556;55.748;13.194;2023-05-27T06:16:12;17.67;;;5.63;;
11771;SDS011;12556;55.748;13.194;2023-05-27T06:18:39;18.50;;;5.80;;
11771;SDS011;12556;55.748;13.194;2023-05-27T06:21:10;16.60;;;5.57;;
11771;SDS011;12556;55.748;13.194;2023-05-27T06:23:37;18.53;;;5.90;;
11771;SDS011;12556;55.748;13.194;2023-05-27T06:26:04;16.07;;;5.57;;
11771;SDS011;12556;55.748;13.194;2023-05-27T06:28:31;20.43;;;6.70;;
11771;SDS011;12556;55.748;13.194;2023-05-27T06:30:59;19.07;;;5.77;;
11771;SDS011;12556;55.748;13.194;2023-05-27T06:33:27;21.53;;;6.07;;
11771;SDS011;12556;55.748;13.194;2023-05-27T06:35:54;18.13;;;6.00;;
11771;SDS011;12556;55.748;13.194;2023-05-27T06:38:21;16.40;;;6.10;;
11771;SDS011;12556;55.748;13.194;2023-05-27T06:40:49;19.67;;;5.73;;
11771;SDS011;12556;55.748;13.194;2023-05-27T06:43:16;15.70;;;5.90;;
11771;SDS011;12556;55.748;13.194;2023-05-27T06:45:42;17.27;;;5.63;;
11771;SDS011;12556;55.748;13.194;2023-05-27T06:48:11;12.67;;;5.17;;
11771;SDS011;12556;55.748;13.194;2023-05-27T06:50:38;13.20;;;4.97;;
11771;SDS011;12556;55.748;13.194;2023-05-27T06:53:04;15.37;;;4.53;;
11771;SDS011;12556;55.748;13.194;2023-05-27T06:55:31;14.77;;;5.10;;
11771;SDS011;12556;55.748;13.194;2023-05-27T06:57:58;15.47;;;4.77;;
11771;SDS011;12556;55.748;13.194;2023-05-27T07:00:25;14.87;;;4.70;;
11771;SDS011;12556;55.748;13.194;2023-05-27T07:02:53;11.30;;;4.33;;
11771;SDS011;12556;55.748;13.194;2023-05-27T07:05:21;16.47;;;4.70;;
11771;SDS011;12556;55.748;13.194;2023-05-27T07:07:48;17.35;;;4.65;;
11771;SDS011;12556;55.748;13.194;2023-05-27T07:10:15;11.02;;;4.82;;
11771;SDS011;12556;55.748;13.194;2023-05-27T07:12:42;16.85;;;5.00;;
11771;SDS011;12556;55.748;13.194;2023-05-27T07:15:09;10.95;;;4.25;;
11771;SDS011;12556;55.748;13.194;2023-05-27T07:17:36;9.52;;;3.70;;
11771;SDS011;12556;55.748;13.194;2023-05-27T07:20:03;10.23;;;4.22;;
11771;SDS011;12556;55.748;13.194;2023-05-27T07:22:32;10.75;;;4.72;;
11771;SDS011;12556;55.748;13.194;2023-05-27T07:24:59;10.18;;;4.13;;
11771;SDS011;12556;55.748;13.194;2023-05-27T07:27:26;14.77;;;4.45;;
11771;SDS011;12556;55.748;13.194;2023-05-27T07:29:53;11.93;;;4.32;;
11771;SDS011;12556;55.748;13.194;2023-05-27T07:32:20;9.82;;;4.43;;
11771;SDS011;12556;55.748;13.194;2023-05-27T07:34:47;12.75;;;4.18;;
11771;SDS011;12556;55.748;13.194;2023-05-27T07:37:14;14.32;;;4.78;;
11771;SDS011;12556;55.748;13.194;2023-05-27T07:39:42;8.63;;;4.50;;
11771;SDS011;12556;55.748;13.194;2023-05-27T07:42:09;8.93;;;3.95;;
11771;SDS011;12556;55.748;13.194;2023-05-27T07:44:36;10.25;;;4.00;;
11771;SDS011;12556;55.748;13.194;2023-05-27T07:47:03;8.88;;;4.32;;
11771;SDS011;12556;55.748;13.194;2023-05-27T07:49:30;10.43;;;5.05;;
11771;SDS011;12556;55.748;13.194;2023-05-27T07:51:56;8.25;;;4.53;;
11771;SDS011;12556;55.748;13.194;2023-05-27T07:54:23;12.63;;;6.90;;
11771;SDS011;12556;55.748;13.194;2023-05-27T07:56:53;9.07;;;5.60;;
11771;SDS011;12556;55.748;13.194;2023-05-27T07:59:22;9.80;;;4.70;;
11771;SDS011;12556;55.748;13.194;2023-05-27T08:01:49;7.18;;;5.68;;
11771;SDS011;12556;55.748;13.194;2023-05-27T08:04:16;9.77;;;4.55;;
11771;SDS011;12556;55.748;13.194;2023-05-27T08:06:43;8.18;;;7.47;;
11771;SDS011;12556;55.748;13.194;2023-05-27T08:09:10;10.13;;;8.93;;
11771;SDS011;12556;55.748;13.194;2023-05-27T08:11:37;6.03;;;5.53;;
11771;SDS011;12556;55.748;13.194;2023-05-27T08:14:05;9.38;;;5.53;;
11771;SDS011;12556;55.748;13.194;2023-05-27T08:16:32;8.02;;;5.70;;
11771;SDS011;12556;55.748;13.194;2023-05-27T08:18:59;12.88;;;7.72;;
11771;SDS011;12556;55.748;13.194;2023-05-27T08:21:26;12.13;;;9.07;;
11771;SDS011;12556;55.748;13.194;2023-05-27T08:23:53;10.98;;;10.07;;
11771;SDS011;12556;55.748;13.194;2023-05-27T08:26:20;19.33;;;17.90;;
11771;SDS011;12556;55.748;13.194;2023-05-27T08:28:47;14.40;;;13.38;;
11771;SDS011;12556;55.748;13.194;2023-05-27T08:31:16;28.17;;;26.30;;
11771;SDS011;12556;55.748;13.194;2023-05-27T08:33:43;21.83;;;20.13;;
11771;SDS011;12556;55.748;13.194;2023-05-27T08:36:10;35.13;;;33.13;;
11771;SDS011;12556;55.748;13.194;2023-05-27T08:38:40;41.47;;;39.03;;
11771;SDS011;12556;55.748;13.194;2023-05-27T08:41:07;36.55;;;34.67;;
11771;SDS011;12556;55.748;13.194;2023-05-27T08:43:33;32.35;;;30.58;;
11771;SDS011;12556;55.748;13.194;2023-05-27T08:46:01;43.30;;;40.75;;
11771;SDS011;12556;55.748;13.194;2023-05-27T08:48:31;37.42;;;35.30;;
11771;SDS011;12556;55.748;13.194;2023-05-27T08:50:58;27.70;;;26.05;;
11771;SDS011;12556;55.748;13.194;2023-05-27T08:53:26;39.20;;;37.05;;
11771;SDS011;12556;55.748;13.194;2023-05-27T08:55:56;27.95;;;26.50;;
11771;SDS011;12556;55.748;13.194;2023-05-27T08:58:26;37.53;;;35.50;;
11771;SDS011;12556;55.748;13.194;2023-05-27T09:00:53;34.15;;;32.03;;
11771;SDS011;12556;55.748;13.194;2023-05-27T09:03:20;23.83;;;22.27;;
11771;SDS011;12556;55.748;13.194;2023-05-27T09:05:49;43.75;;;41.72;;
11771;SDS011;12556;55.748;13.194;2023-05-27T09:08:16;36.35;;;34.35;;
11771;SDS011;12556;55.748;13.194;2023-05-27T09:10:43;27.33;;;25.75;;
11771;SDS011;12556;55.748;13.194;2023-05-27T09:13:09;47.05;;;44.88;;
11771;SDS011;12556;55.748;13.194;2023-05-27T09:15:37;34.28;;;32.40;;
11771;SDS011;12556;55.748;13.194;2023-05-27T09:18:04;31.85;;;29.88;;
11771;SDS011;12556;55.748;13.194;2023-05-27T09:20:31;35.65;;;34.00;;
11771;SDS011;12556;55.748;13.194;2023-05-27T09:23:00;34.65;;;32.97;;
11771;SDS011;12556;55.748;13.194;2023-05-27T09:25:28;36.70;;;34.95;;
11771;SDS011;12556;55.748;13.194;2023-05-27T09:27:55;38.78;;;37.05;;
11771;SDS011;12556;55.748;13.194;2023-05-27T09:30:23;31.83;;;30.42;;
11771;SDS011;12556;55.748;13.194;2023-05-27T09:32:59;38.20;;;36.53;;
11771;SDS011;12556;55.748;13.194;2023-05-27T09:35:27;27.13;;;25.95;;
11771;SDS011;12556;55.748;13.194;2023-05-27T09:37:53;49.22;;;47.13;;
11771;SDS011;12556;55.748;13.194;2023-05-27T09:40:22;46.35;;;44.38;;
11771;SDS011;12556;55.748;13.194;2023-05-27T09:42:51;63.92;;;61.28;;
11771;SDS011;12556;55.748;13.194;2023-05-27T09:45:20;51.45;;;48.95;;
11771;SDS011;12556;55.748;13.194;2023-05-27T09:47:48;39.10;;;37.38;;
11771;SDS011;12556;55.748;13.194;2023-05-27T09:50:16;72.88;;;70.00;;
11771;SDS011;12556;55.748;13.194;2023-05-27T09:52:43;62.65;;;60.17;;
11771;SDS011;12556;55.748;13.194;2023-05-27T09:55:11;57.58;;;55.08;;
11771;SDS011;12556;55.748;13.194;2023-05-27T09:57:40;49.78;;;47.45;;
11771;SDS011;12556;55.748;13.194;2023-05-27T10:00:08;101.03;;;97.13;;
11771;SDS011;12556;55.748;13.194;2023-05-27T10:02:37;80.60;;;77.35;;
11771;SDS011;12556;55.748;13.194;2023-05-27T10:05:06;84.32;;;81.03;;
11771;SDS011;12556;55.748;13.194;2023-05-27T10:07:36;102.15;;;98.22;;
11771;SDS011;12556;55.748;13.194;2023-05-27T10:10:04;102.72;;;98.82;;
11771;SDS011;12556;55.748;13.194;2023-05-27T10:12:33;104.93;;;100.88;;
11771;SDS011;12556;55.748;13.194;2023-05-27T10:15:02;105.45;;;101.47;;
11771;SDS011;12556;55.748;13.194;2023-05-27T10:17:39;99.85;;;95.95;;
11771;SDS011;12556;55.748;13.194;2023-05-27T10:20:07;100.60;;;96.85;;
11771;SDS011;12556;55.748;13.194;2023-05-27T10:22:38;117.55;;;113.05;;
11771;SDS011;12556;55.748;13.194;2023-05-27T10:25:11;123.43;;;118.78;;
11771;SDS011;12556;55.748;13.194;2023-05-27T10:27:43;126.57;;;121.70;;
11771;SDS011;12556;55.748;13.194;2023-05-27T10:30:12;90.18;;;86.47;;
11771;SDS011;12556;55.748;13.194;2023-05-27T10:32:43;125.13;;;120.40;;
11771;SDS011;12556;55.748;13.194;2023-05-27T10:35:13;134.07;;;128.98;;
11771;SDS011;12556;55.748;13.194;2023-05-27T10:37:41;129.00;;;123.88;;
11771;SDS011;12556;55.748;13.194;2023-05-27T10:40:08;150.25;;;144.50;;
11771;SDS011;12556;55.748;13.194;2023-05-27T10:42:36;163.50;;;157.27;;
11771;SDS011;12556;55.748;13.194;2023-05-27T10:45:04;152.15;;;146.38;;
11771;SDS011;12556;55.748;13.194;2023-05-27T10:47:35;208.63;;;200.82;;
11771;SDS011;12556;55.748;13.194;2023-05-27T10:50:12;169.90;;;163.45;;
11771;SDS011;12556;55.748;13.194;2023-05-27T10:52:40;119.82;;;115.07;;
11771;SDS011;12556;55.748;13.194;2023-05-27T10:55:07;143.65;;;138.13;;
11771;SDS011;12556;55.748;13.194;2023-05-27T10:57:35;152.85;;;146.98;;
11771;SDS011;12556;55.748;13.194;2023-05-27T11:00:03;163.27;;;156.77;;
11771;SDS011;12556;55.748;13.194;2023-05-27T11:02:34;178.48;;;171.63;;
11771;SDS011;12556;55.748;13.194;2023-05-27T11:05:10;167.25;;;160.63;;
11771;SDS011;12556;55.748;13.194;2023-05-27T11:07:40;189.55;;;182.07;;
11771;SDS011;12556;55.748;13.194;2023-05-27T11:10:08;198.55;;;190.93;;
11771;SDS011;12556;55.748;13.194;2023-05-27T11:12:35;188.63;;;181.40;;
11771;SDS011;12556;55.748;13.194;2023-05-27T11:15:02;179.63;;;172.80;;
11771;SDS011;12556;55.748;13.194;2023-05-27T11:17:30;164.23;;;157.77;;
11771;SDS011;12556;55.748;13.194;2023-05-27T11:19:58;189.13;;;181.65;;
11771;SDS011;12556;55.748;13.194;2023-05-27T11:22:25;209.40;;;201.20;;
11771;SDS011;12556;55.748;13.194;2023-05-27T11:24:55;169.82;;;162.90;;
11771;SDS011;12556;55.748;13.194;2023-05-27T11:27:23;195.30;;;187.93;;
11771;SDS011;12556;55.748;13.194;2023-05-27T11:29:50;136.32;;;130.93;;
11771;SDS011;12556;55.748;13.194;2023-05-27T11:32:18;155.45;;;149.18;;
11771;SDS011;12556;55.748;13.194;2023-05-27T11:34:45;184.55;;;177.35;;
11771;SDS011;12556;55.748;13.194;2023-05-27T11:37:15;155.73;;;149.50;;
11771;SDS011;12556;55.748;13.194;2023-05-27T11:39:48;195.52;;;188.25;;
11771;SDS011;12556;55.748;13.194;2023-05-27T11:42:20;158.73;;;152.45;;
11771;SDS011;12556;55.748;13.194;2023-05-27T11:44:49;162.80;;;156.57;;
11771;SDS011;12556;55.748;13.194;2023-05-27T11:47:17;222.80;;;214.02;;
11771;SDS011;12556;55.748;13.194;2023-05-27T11:49:45;211.80;;;203.32;;
11771;SDS011;12556;55.748;13.194;2023-05-27T11:52:13;187.18;;;179.32;;
11771;SDS011;12556;55.748;13.194;2023-05-27T11:54:40;143.38;;;137.48;;
11771;SDS011;12556;55.748;13.194;2023-05-27T11:57:07;194.13;;;186.65;;
11771;SDS011;12556;55.748;13.194;2023-05-27T11:59:36;204.40;;;196.32;;
11771;SDS011;12556;55.748;13.194;2023-05-27T12:02:03;257.38;;;246.93;;
11771;SDS011;12556;55.748;13.194;2023-05-27T12:04:30;226.57;;;217.95;;
11771;SDS011;12556;55.748;13.194;2023-05-27T12:06:57;230.43;;;221.40;;
11771;SDS011;12556;55.748;13.194;2023-05-27T12:09:27;211.63;;;203.23;;
11771;SDS011;12556;55.748;13.194;2023-05-27T12:11:53;226.38;;;217.50;;
11771;SDS011;12556;55.748;13.194;2023-05-27T12:14:20;271.60;;;261.17;;
11771;SDS011;12556;55.748;13.194;2023-05-27T12:16:47;209.55;;;201.75;;
11771;SDS011;12556;55.748;13.194;2023-05-27T12:19:14;243.18;;;233.85;;
11771;SDS011;12556;55.748;13.194;2023-05-27T12:21:41;285.92;;;274.33;;
11771;SDS011;12556;55.748;13.194;2023-05-27T12:24:08;271.70;;;260.92;;
11771;SDS011;12556;55.748;13.194;2023-05-27T12:26:38;317.52;;;304.73;;
11771;SDS011;12556;55.748;13.194;2023-05-27T12:29:06;256.05;;;246.32;;
11771;SDS011;12556;55.748;13.194;2023-05-27T12:31:33;264.30;;;254.25;;
11771;SDS011;12556;55.748;13.194;2023-05-27T12:34:00;283.08;;;272.17;;
11771;SDS011;12556;55.748;13.194;2023-05-27T12:36:27;249.90;;;240.25;;
11771;SDS011;12556;55.748;13.194;2023-05-27T12:38:54;263.35;;;252.90;;
11771;SDS011;12556;55.748;13.194;2023-05-27T12:41:21;320.25;;;307.30;;
11771;SDS011;12556;55.748;13.194;2023-05-27T12:43:49;262.20;;;251.70;;
11771;SDS011;12556;55.748;13.194;2023-05-27T12:46:16;288.73;;;277.48;;
11771;SDS011;12556;55.748;13.194;2023-05-27T12:48:43;331.40;;;318.13;;
11771;SDS011;12556;55.748;13.194;2023-05-27T12:51:10;272.55;;;261.67;;
11771;SDS011;12556;55.748;13.194;2023-05-27T12:53:37;268.90;;;258.08;;
11771;SDS011;12556;55.748;13.194;2023-05-27T12:56:04;342.65;;;328.45;;
11771;SDS011;12556;55.748;13.194;2023-05-27T12:58:32;250.63;;;240.88;;
11771;SDS011;12556;55.748;13.194;2023-05-27T13:01:00;345.00;;;330.90;;
11771;SDS011;12556;55.748;13.194;2023-05-27T13:03:27;302.80;;;290.83;;
11771;SDS011;12556;55.748;13.194;2023-05-27T13:05:54;352.15;;;337.98;;
11771;SDS011;12556;55.748;13.194;2023-05-27T13:08:21;377.70;;;361.23;;
11771;SDS011;12556;55.748;13.194;2023-05-27T13:10:48;330.13;;;317.05;;
11771;SDS011;12556;55.748;13.194;2023-05-27T13:13:15;338.27;;;324.63;;
11771;SDS011;12556;55.748;13.194;2023-05-27T13:15:42;324.85;;;311.85;;
11771;SDS011;12556;55.748;13.194;2023-05-27T13:18:10;333.55;;;320.27;;
11771;SDS011;12556;55.748;13.194;2023-05-27T13:20:37;302.88;;;290.83;;
11771;SDS011;12556;55.748;13.194;2023-05-27T13:23:04;297.88;;;286.20;;
11771;SDS011;12556;55.748;13.194;2023-05-27T13:25:32;313.67;;;301.08;;
11771;SDS011;12556;55.748;13.194;2023-05-27T13:27:59;338.13;;;324.48;;
11771;SDS011;12556;55.748;13.194;2023-05-27T13:30:26;359.00;;;344.80;;
11771;SDS011;12556;55.748;13.194;2023-05-27T13:32:53;329.77;;;316.55;;
11771;SDS011;12556;55.748;13.194;2023-05-27T13:35:21;327.48;;;314.67;;
11771;SDS011;12556;55.748;13.194;2023-05-27T13:37:48;342.75;;;328.83;;
11771;SDS011;12556;55.748;13.194;2023-05-27T13:40:15;357.83;;;342.67;;
11771;SDS011;12556;55.748;13.194;2023-05-27T13:42:43;363.20;;;347.92;;
11771;SDS011;12556;55.748;13.194;2023-05-27T13:45:10;359.63;;;345.30;;
11771;SDS011;12556;55.748;13.194;2023-05-27T13:47:37;354.30;;;340.02;;
11771;SDS011;12556;55.748;13.194;2023-05-27T13:50:07;346.17;;;331.80;;
11771;SDS011;12556;55.748;13.194;2023-05-27T13:52:36;353.55;;;339.45;;
11771;SDS011;12556;55.748;13.194;2023-05-27T13:55:04;342.30;;;328.48;;
11771;SDS011;12556;55.748;13.194;2023-05-27T13:57:33;327.83;;;314.90;;
11771;SDS011;12556;55.748;13.194;2023-05-27T14:00:00;359.52;;;344.50;;
11771;SDS011;12556;55.748;13.194;2023-05-27T14:02:27;341.92;;;328.05;;
11771;SDS011;12556;55.748;13.194;2023-05-27T14:04:54;331.40;;;318.10;;
11771;SDS011;12556;55.748;13.194;2023-05-27T14:07:20;358.98;;;344.25;;
11771;SDS011;12556;55.748;13.194;2023-05-27T14:09:49;374.50;;;358.50;;
11771;SDS011;12556;55.748;13.194;2023-05-27T14:12:16;383.35;;;367.25;;
11771;SDS011;12556;55.748;13.194;2023-05-27T14:14:43;353.70;;;339.25;;
11771;SDS011;12556;55.748;13.194;2023-05-27T14:17:10;355.25;;;340.70;;